createdAt,value
2019-03-04T00:05:24.147Z,10.30
2019-03-04T00:10:22.597Z,10.20
2019-03-04T00:15:21.050Z,10.60
2019-03-04T00:20:19.535Z,10.70
2019-03-04T00:27:47.063Z,10.70
2019-03-04T00:35:15.026Z,11.00
2019-03-04T00:40:16.860Z,10.90
2019-03-04T00:45:15.658Z,10.70
2019-03-04T00:47:45.031Z,10.50
2019-03-04T00:52:46.024Z,10.80
2019-03-04T00:57:44.491Z,10.60
2019-03-04T01:00:25.916Z,11.00
2019-03-04T01:05:24.384Z,10.90
2019-03-04T01:07:54.729Z,10.60
2019-03-04T01:10:24.523Z,10.90
2019-03-04T01:17:52.707Z,10.40
2019-03-04T01:20:22.600Z,11.40
2019-03-04T01:25:21.061Z,10.60
2019-03-04T01:32:54.039Z,10.40
2019-03-04T01:37:52.483Z,10.80
2019-03-04T01:50:21.223Z,10.40
2019-03-04T01:52:50.579Z,10.40
2019-03-04T02:02:49.420Z,10.10
2019-03-04T02:12:49.038Z,10.60
2019-03-04T02:17:49.082Z,10.80
2019-03-04T02:22:47.997Z,10.60
2019-03-04T02:28:07.444Z,10.60
2019-03-04T02:33:06.209Z,10.90
2019-03-04T02:35:35.562Z,11.10
2019-03-04T02:40:34.309Z,10.70
2019-03-04T02:43:03.676Z,10.80
2019-03-04T02:48:02.089Z,10.80
2019-03-04T02:53:00.561Z,10.40
2019-03-04T02:55:29.919Z,10.80
2019-03-04T03:00:28.396Z,10.10
2019-03-04T03:05:26.812Z,10.60
2019-03-04T03:07:56.151Z,10.50
2019-03-04T03:12:54.574Z,10.60
2019-03-04T03:17:52.993Z,10.70
2019-03-04T03:20:22.354Z,10.40
2019-03-04T03:22:51.721Z,10.50
2019-03-04T03:30:22.500Z,10.40
2019-03-04T03:40:21.156Z,10.70
2019-03-04T03:45:19.985Z,10.50
2019-03-04T03:47:49.425Z,10.80
2019-03-04T03:52:47.948Z,10.40
2019-03-04T04:10:19.486Z,11.00
2019-03-04T04:15:19.922Z,10.80
2019-03-04T04:20:18.464Z,10.60
2019-03-04T04:22:47.863Z,10.50
2019-03-04T04:27:46.392Z,10.60
2019-03-04T04:40:20.914Z,10.70
2019-03-04T04:42:52.308Z,10.90
2019-03-04T04:50:27.244Z,10.80
2019-03-04T04:57:54.834Z,11.30
2019-03-04T05:02:53.361Z,11.00
2019-03-04T05:05:22.790Z,10.80
2019-03-04T05:10:25.337Z,10.70
2019-03-04T05:15:23.800Z,10.80
2019-03-04T05:27:54.182Z,10.60
2019-03-04T05:32:54.384Z,10.80
2019-03-04T05:35:23.719Z,10.90
2019-03-04T05:45:20.873Z,11.00
2019-03-04T05:52:50.931Z,10.70
2019-03-04T06:00:24.773Z,10.80
2019-03-04T06:05:28.835Z,10.90
2019-03-04T06:08:05.681Z,10.90
2019-03-04T06:10:35.038Z,10.90
2019-03-04T06:15:33.484Z,10.70
2019-03-04T06:18:02.837Z,10.70
2019-03-04T06:23:01.276Z,10.50
2019-03-04T06:25:30.973Z,10.90
2019-03-04T06:30:31.043Z,11.10
2019-03-04T06:35:29.497Z,10.70
2019-03-04T06:37:58.847Z,11.10
2019-03-04T06:42:57.652Z,11.30
2019-03-04T06:53:32.244Z,11.90
2019-03-04T06:56:37.863Z,12.20
2019-03-04T07:07:03.656Z,12.50
2019-03-04T07:12:02.395Z,12.50
2019-03-04T07:26:57.785Z,13.20
2019-03-04T07:29:27.118Z,13.10
2019-03-04T07:41:52.934Z,13.40
2019-03-04T07:44:22.258Z,13.30
2019-03-04T07:49:20.789Z,13.70
2019-03-04T07:56:48.552Z,13.60
2019-03-04T08:01:47.339Z,13.10
2019-03-04T08:04:16.667Z,13.20
2019-03-04T08:06:46.110Z,13.50
2019-03-04T08:09:44.438Z,13.40
2019-03-04T08:12:33.598Z,13.70
2019-03-04T08:20:01.193Z,13.90
2019-03-04T08:24:59.731Z,14.10
2019-03-04T08:29:58.335Z,14.10
2019-03-04T08:40:01.641Z,13.90
2019-03-04T08:49:58.614Z,14.10
2019-03-04T08:52:33.879Z,13.80
2019-03-04T08:57:33.273Z,13.60
2019-03-04T09:00:03.050Z,14.40
2019-03-04T09:02:32.818Z,13.50
2019-03-04T09:05:02.253Z,13.40
2019-03-04T09:10:00.890Z,13.80
2019-03-04T09:14:59.831Z,14.10
2019-03-04T09:19:59.098Z,13.90
2019-03-04T09:22:28.502Z,13.90
2019-03-04T09:27:27.159Z,14.10
2019-03-04T09:29:56.610Z,14.30
2019-03-04T09:34:55.230Z,14.00
2019-03-04T09:37:24.653Z,14.60
2019-03-04T09:39:54.124Z,14.70
2019-03-04T09:47:23.568Z,15.20
2019-03-04T09:54:51.470Z,15.70
2019-03-04T09:59:50.073Z,16.00
2019-03-04T10:02:20.117Z,16.00
2019-03-04T10:05:02.878Z,16.20
2019-03-04T10:07:48.361Z,16.00
2019-03-04T10:10:40.178Z,16.00
2019-03-04T10:13:32.075Z,16.50
2019-03-04T10:16:18.756Z,16.50
2019-03-04T10:27:27.987Z,16.60
2019-03-04T10:33:16.979Z,16.50
2019-03-04T10:36:00.267Z,16.00
2019-03-04T10:57:04.670Z,16.50
2019-03-04T11:02:03.409Z,16.90
2019-03-04T11:04:32.831Z,16.50
2019-03-04T11:09:31.556Z,16.20
2019-03-04T11:24:29.752Z,14.90
2019-03-04T11:26:59.252Z,14.00
2019-03-04T11:31:57.950Z,14.20
2019-03-04T11:36:56.654Z,13.40
2019-03-04T11:39:46.066Z,13.40
2019-03-04T11:52:12.222Z,12.80
2019-03-04T11:57:11.361Z,13.00
2019-03-04T12:02:11.823Z,13.30
2019-03-04T12:04:41.308Z,13.30
2019-03-04T12:07:10.709Z,13.40
2019-03-04T12:09:40.218Z,13.60
2019-03-04T12:22:06.963Z,13.50
2019-03-04T12:27:06.221Z,13.50
2019-03-04T12:29:35.708Z,13.70
2019-03-04T12:39:34.970Z,13.70
2019-03-04T12:44:33.649Z,13.80
2019-03-04T12:47:03.071Z,14.00
2019-03-04T12:57:00.444Z,14.20
2019-03-04T12:59:29.935Z,14.20
2019-03-04T13:01:59.459Z,14.30
2019-03-04T13:06:58.156Z,14.40
2019-03-04T13:09:27.583Z,14.30
2019-03-04T13:14:26.671Z,13.80
2019-03-04T13:24:23.884Z,14.10
2019-03-04T13:29:22.636Z,14.40
2019-03-04T13:34:21.719Z,14.30
2019-03-04T13:36:51.182Z,14.30
2019-03-04T13:39:20.602Z,14.50
2019-03-04T13:44:19.200Z,14.50
2019-03-04T13:46:48.640Z,14.50
2019-03-04T13:56:45.915Z,14.30
2019-03-04T14:01:44.542Z,14.20
2019-03-04T14:04:13.967Z,14.20
2019-03-04T14:06:43.550Z,14.50
2019-03-04T14:09:15.116Z,14.30
2019-03-04T14:16:42.966Z,14.90
2019-03-04T14:19:12.374Z,14.20
2019-03-04T14:21:41.811Z,14.30
2019-03-04T14:29:10.625Z,14.20
2019-03-04T14:31:40.131Z,14.20
2019-03-04T14:39:12.949Z,14.10
2019-03-04T14:41:42.500Z,14.10
2019-03-04T14:49:10.670Z,13.70
2019-03-04T14:56:38.605Z,13.70
2019-03-04T15:01:39.123Z,13.50
2019-03-04T15:04:08.628Z,13.50
2019-03-04T15:06:38.138Z,13.40
2019-03-04T15:11:38.682Z,13.20
2019-03-04T15:16:38.003Z,13.30
2019-03-04T15:19:07.504Z,13.30
2019-03-04T15:26:43.007Z,13.90
2019-03-04T15:34:06.910Z,13.00
2019-03-04T15:39:09.106Z,13.00
2019-03-04T15:44:09.530Z,13.20
2019-03-04T15:49:08.343Z,12.90
2019-03-04T15:51:37.974Z,12.40
2019-03-04T15:54:08.595Z,12.30
2019-03-04T15:59:07.495Z,12.10
2019-03-04T16:04:06.301Z,11.60
2019-03-04T16:06:35.873Z,11.70
2019-03-04T16:24:06.551Z,11.90
2019-03-04T16:26:36.055Z,12.00
2019-03-04T16:31:35.073Z,11.80
2019-03-04T16:39:04.820Z,11.10
2019-03-04T16:41:34.322Z,11.00
2019-03-04T16:46:33.023Z,8.60
2019-03-04T16:56:39.246Z,7.60
2019-03-04T16:59:11.784Z,7.90
2019-03-04T17:01:41.549Z,7.10
2019-03-04T17:16:57.484Z,6.30
2019-03-04T17:24:25.541Z,6.60
2019-03-04T17:36:52.237Z,6.50
2019-03-04T17:39:29.728Z,6.80
2019-03-04T17:44:28.538Z,6.70
2019-03-04T17:46:58.122Z,6.80
2019-03-04T18:04:25.001Z,7.00
2019-03-04T18:14:32.456Z,6.90
2019-03-04T18:19:31.432Z,6.70
2019-03-04T18:29:39.317Z,6.40
2019-03-04T18:32:31.251Z,6.60
2019-03-04T18:35:05.464Z,6.60
2019-03-04T18:37:54.746Z,7.10
2019-03-04T18:48:57.156Z,6.80
2019-03-04T18:59:05.040Z,6.30
2019-03-04T19:01:34.529Z,6.60
2019-03-04T19:11:33.990Z,6.80
2019-03-04T19:16:32.914Z,6.50
2019-03-04T19:19:02.407Z,6.70
2019-03-04T19:24:01.319Z,6.40
2019-03-04T19:29:00.426Z,7.60
2019-03-04T19:36:28.942Z,6.60
2019-03-04T19:38:58.456Z,6.40
2019-03-04T19:56:30.633Z,6.40
2019-03-04T20:08:58.379Z,7.00
2019-03-04T20:11:28.381Z,7.60
2019-03-04T20:21:27.737Z,6.80
2019-03-04T20:23:57.454Z,6.90
2019-03-04T20:33:56.299Z,7.00
2019-03-04T20:36:25.989Z,7.30
2019-03-04T20:41:32.267Z,7.20
2019-03-04T20:46:31.004Z,7.10
2019-03-04T20:51:33.906Z,7.10
2019-03-04T20:59:11.152Z,7.60
2019-03-04T21:01:41.043Z,7.60
2019-03-04T22:04:27.879Z,7.40
2019-03-04T22:12:04.694Z,7.00
2019-03-04T22:22:16.351Z,7.40
2019-03-04T22:27:15.121Z,7.40
2019-03-04T22:37:15.015Z,7.20
2019-03-04T22:44:43.444Z,7.20
2019-03-04T22:47:12.984Z,7.10
2019-03-04T22:57:24.692Z,7.10
2019-03-04T23:02:26.472Z,7.20
2019-03-04T23:04:55.977Z,7.90
2019-03-04T23:07:25.598Z,7.80
2019-03-04T23:09:59.171Z,7.00
2019-03-04T23:25:08.196Z,6.90
2019-03-04T23:27:37.813Z,7.10
2019-03-04T23:32:39.802Z,7.00
2019-03-04T23:42:41.020Z,7.10
2019-03-04T23:45:17.066Z,7.00
2019-03-04T23:52:52.332Z,7.20
